• Join FlightAware (Why Join?)
  • Login
  • US Flag 
11:46AM EST


 

Airport Tracker/Info


-or-


 

Live Flight TrackerFlight Track Log ✈ RPA3392 ✈ 05-Jun-2013 ✈ KDCA - KALB

Flight Track Log - Related Links

Times and Time Zones

All times are in EDT time to prevent confusion due to time zone crossing. See the RPA3392 flight status page for this flight to view local times or setup timezone preferences in your user account.

Time Position Orientation Groundspeed Altitude Reporting Facility
EDT Latitude Longitude Course Direction KTS MPH feet Rate Location/Type
10:12PM 38.7672 -77.0267 81° East 172 198 29,000  Level Washington Center
10:13PM 39.0271 -76.5355 67° East  Level FlightAware Approximate
10:13PM 38.7175 -76.9964 155° Southeast 201 231 5,200  Level Washington Center
10:14PM 39.0764 -76.4106 61° Northeast  Level FlightAware Approximate
10:14PM 38.7478 -76.9039 67° East 176 203 8,100  Level Washington Center
10:15PM 39.1167 -76.2837 90° East  Level FlightAware Approximate
10:15PM 38.7947 -76.8142 56° Northeast 210 242 10,600  Level Washington Center
10:16PM 39.1556 -76.1607 83° East  Level FlightAware Approximate
10:16PM 38.8844 -76.7892 12° North 239 275 12,400  Level Washington Center
10:17PM 39.1682 -76.0214 81° East  Level FlightAware Approximate
10:17PM 38.9642 -76.7394 26° Northeast 270 311 14,600  Level Washington Center
10:18PM 39.0069 -76.6200 65° Northeast 311 358 16,500 1,740 Climbing Washington Center
10:19PM 39.0494 -76.5031 65° Northeast 333 383 18,200 1,260 Climbing Washington Center
10:20PM 39.0964 -76.3753 65° Northeast 354 407 19,000 360 Climbing Washington Center
10:21PM 39.1386 -76.2500 66° East 370 426 19,000 540 Level Washington Center
10:22PM 39.1667 -76.1028 76° East 381 438 20,100 1,440 Climbing Washington Center
10:23PM 39.1839 -75.9531 82° East 397 457 22,000 1,620 Climbing Washington Center
10:24PM 39.2403 -75.8219 61° Northeast 411 473 23,400 1,440 Climbing Washington Center
10:25PM 39.3281 -75.7097 45° Northeast 424 488 24,900 1,440 Climbing Washington Center
10:26PM 39.4178 -75.5889 46° Northeast 436 502 26,300 1,020 Climbing Washington Center
10:27PM 39.5092 -75.4733 44° Northeast 449 517 27,000 240 Climbing Washington Center
10:28PM 39.6606 -75.2769 45° Northeast 476 548 27,000  Level New York Center
10:29PM 39.7467 -75.1503 48° Northeast 476 548 27,000  Level New York Center
10:30PM 39.8325 -75.0258 48° Northeast 476 548 27,000  Level New York Center
10:31PM 39.9203 -74.9011 47° Northeast 471 542 27,000  Level New York Center
10:32PM 39.9972 -74.7892 48° Northeast 464 534 27,000  Level New York Center
10:33PM 40.0936 -74.6511 48° Northeast 464 534 27,000  Level New York Center
10:34PM 40.1722 -74.5386 48° Northeast 459 528 27,000  Level New York Center
10:35PM 40.2697 -74.4242 42° Northeast 467 537 27,000  Level New York Center
10:36PM 40.3686 -74.3206 39° Northeast 456 525 27,000  Level New York Center
10:39PM 40.6281 -74.0369 40° Northeast 465 535 27,000 -540 Level Boston Center
10:40PM 40.7169 -73.9461 38° Northeast 459 528 25,300 -1,500 Descending Boston Center
10:41PM 40.8097 -73.8467 39° Northeast 440 506 24,000 -660 Descending Boston Center
10:42PM 40.8986 -73.7333 44° Northeast 435 501 24,000 -420 Level Boston Center
10:43PM 40.9850 -73.6500 36° Northeast 435 501 23,200 -540 Descending Boston Center
10:44PM 41.1122 -73.6578 357° North 391 450 23,000 -240 Descending Boston Center
10:45PM 41.2203 -73.6708 355° North 386 444 22,800 -600 Descending Boston Center
10:46PM 41.3328 -73.6786 357° North 386 444 21,800 -1,020 Descending Boston Center
10:47PM 41.4411 -73.6889 356° North 391 450 20,800 -960 Descending Boston Center
10:48PM 41.5597 -73.6969 357° North 386 444 19,900 -1,620 Descending Boston Center
10:49PM 41.6514 -73.7069 355° North 371 427 17,600 -2,280 Descending Boston Center
10:50PM 41.7639 -73.7147 357° North 366 421 15,400 -2,040 Descending Boston Center
10:51PM 41.8511 -73.7250 355° North 361 415 13,600 -1,980 Descending Boston Center
10:52PM 41.9636 -73.7356 356° North 361 415 11,500 -1,980 Descending Boston Center
10:52PM 41.9950 -73.7361 359° North 356 410 11,000 -540 Descending Boston Center
10:53PM 42.0492 -73.7403 357° North 356 410 11,000  Level Boston Center
10:53PM 42.0969 -73.7494 352° North 343 395 11,000  Level Boston Center
10:54PM 42.1531 -73.7506 359° North 346 398 11,000  Level Boston Center
10:54PM 42.1864 -73.7542 355° North 348 400 11,000 -540 Level Boston Center
10:55PM 42.2447 -73.7611 355° North 338 389 10,500 -900 Descending Boston Center
10:55PM 42.2739 -73.7644 355° North 301 346 10,100 -1,740 Descending Boston Center
10:56PM 42.3281 -73.7683 357° North 310 357 8,800 -2,100 Descending Boston Center
10:56PM 42.3592 -73.7747 351° North 284 327 8,000 -2,040 Descending Boston Center
10:57PM 42.4050 -73.7756 359° North 290 334 6,800 -2,340 Descending Boston Center
10:57PM 42.4361 -73.7819 351° North 274 315 5,700 -2,100 Descending Boston Center
10:58PM 42.4653 -73.7825 359° North 277 319 4,700 -2,460 Descending Boston Center
10:58PM 42.5092 -73.7864 356° North 268 308 3,200 -1,740 Descending Boston Center
10:59PM 42.5550 -73.7903 356° North 271 312 3,000 -540 Descending Boston Center
10:59PM 42.5883 -73.7967 352° North 259 298 2,600 -720 Descending Boston Center
11:00PM 42.6089 -73.8025 348° North 266 306 2,300 -660 Descending Boston Center